Time;durP1;ratioP1;P1;durP2;ratioP2;P2;SDS_P1;SDS_P2;PMS_P1;PMS_P2;Temp;Humidity;BMP_temperature;BMP_pressure;BME280_temperature;BME280_humidity;BME280_pressure;Samples;Min_cycle;Max_cycle;Signal;HPM_P1;HPM_P2
2022/04/13 00:01:18;;;;;;;14.60;9.43;;;;;;;;;;5111516;27;20067;-63
2022/04/13 00:03:46;;;;;;;15.57;10.60;;;;;;;;;;5109153;27;20138;-63
2022/04/13 00:06:15;;;;;;;14.68;10.68;;;;;;;;;;5128030;27;21458;-63
2022/04/13 00:08:43;;;;;;;18.80;10.90;;;;;;;;;;5130762;27;20042;-63
2022/04/13 00:11:09;;;;;;;14.50;10.60;;;;;;;;;;5111417;27;20051;-63
2022/04/13 00:13:35;;;;;;;18.10;12.07;;;;;;;;;;5111025;27;20123;-63
2022/04/13 00:16:02;;;;;;;18.90;11.98;;;;;;;;;;5121049;27;20455;-63
2022/04/13 00:18:28;;;;;;;19.02;12.10;;;;;;;;;;5126849;27;20413;-63
2022/04/13 00:20:54;;;;;;;18.00;12.40;;;;;;;;;;5125532;27;20031;-63
2022/04/13 00:23:20;;;;;;;19.85;12.20;;;;;;;;;;5124746;27;20042;-63
2022/04/13 00:25:47;;;;;;;18.48;12.65;;;;;;;;;;5126575;27;20411;-63
2022/04/13 00:28:14;;;;;;;18.42;12.10;;;;;;;;;;5128447;27;20124;-63
2022/04/13 00:30:40;;;;;;;20.15;12.45;;;;;;;;;;5110124;27;20038;-63
2022/04/13 00:33:07;;;;;;;17.10;11.60;;;;;;;;;;5110577;27;20035;-63
2022/04/13 00:35:33;;;;;;;18.42;12.73;;;;;;;;;;5125933;27;20055;-63
2022/04/13 00:37:59;;;;;;;20.13;12.50;;;;;;;;;;5127580;27;20126;-63
2022/04/13 00:40:25;;;;;;;15.40;12.27;;;;;;;;;;5093371;27;20070;-63
2022/04/13 00:42:51;;;;;;;18.73;13.50;;;;;;;;;;5129218;27;20054;-63
2022/04/13 00:45:17;;;;;;;25.35;14.27;;;;;;;;;;5128156;27;20043;-63
2022/04/13 00:47:46;;;;;;;19.73;13.93;;;;;;;;;;5126841;27;20130;-63
2022/04/13 00:50:12;;;;;;;19.00;13.57;;;;;;;;;;5130134;27;20130;-63
2022/04/13 00:52:41;;;;;;;18.67;14.10;;;;;;;;;;5109094;28;20127;-63
2022/04/13 00:55:08;;;;;;;19.25;13.85;;;;;;;;;;5107490;28;20039;-63
2022/04/13 00:57:36;;;;;;;22.90;14.00;;;;;;;;;;5130162;28;20042;-63
2022/04/13 01:00:04;;;;;;;28.70;16.23;;;;;;;;;;5109673;28;20131;-63
2022/04/13 01:02:31;;;;;;;23.45;15.05;;;;;;;;;;5126780;28;20128;-63
2022/04/13 01:04:58;;;;;;;22.52;16.23;;;;;;;;;;5127774;27;20039;-63
2022/04/13 01:07:24;;;;;;;26.10;16.70;;;;;;;;;;5129618;27;20504;-63
2022/04/13 01:09:51;;;;;;;26.60;17.38;;;;;;;;;;5114643;27;20490;-62
2022/04/13 01:12:17;;;;;;;28.65;18.08;;;;;;;;;;5107131;27;20075;-63
2022/04/13 01:14:43;;;;;;;28.33;17.30;;;;;;;;;;5130740;27;20380;-63
2022/04/13 01:17:09;;;;;;;24.60;17.80;;;;;;;;;;5128988;27;20116;-63
2022/04/13 01:19:36;;;;;;;28.42;17.90;;;;;;;;;;5115547;27;20045;-63
2022/04/13 01:22:19;;;;;;;30.70;18.65;;;;;;;;;;5124911;27;20042;-63
2022/04/13 01:24:46;;;;;;;26.55;17.83;;;;;;;;;;5126002;27;21490;-63
2022/04/13 01:27:14;;;;;;;30.20;20.02;;;;;;;;;;5129444;27;20041;-63
2022/04/13 01:29:41;;;;;;;29.33;19.83;;;;;;;;;;5124430;27;20043;-63
2022/04/13 01:32:07;;;;;;;26.67;18.63;;;;;;;;;;5104720;28;20093;-63
2022/04/13 01:34:33;;;;;;;27.58;20.10;;;;;;;;;;5105484;27;20130;-63
2022/04/13 01:37:00;;;;;;;28.05;20.02;;;;;;;;;;5108269;27;20191;-63
2022/04/13 01:39:27;;;;;;;31.15;20.60;;;;;;;;;;5119110;27;20163;-63
2022/04/13 01:41:54;;;;;;;30.77;20.63;;;;;;;;;;5106058;27;20051;-62
2022/04/13 01:44:20;;;;;;;33.00;21.25;;;;;;;;;;5100613;27;20047;-63
2022/04/13 01:46:46;;;;;;;31.55;20.08;;;;;;;;;;5120199;27;20035;-63
2022/04/13 01:49:12;;;;;;;31.00;19.92;;;;;;;;;;5130873;27;20188;-63
2022/04/13 01:51:38;;;;;;;31.73;20.65;;;;;;;;;;5129092;27;20566;-63
2022/04/13 01:54:04;;;;;;;29.95;20.02;;;;;;;;;;5132749;27;20058;-63
2022/04/13 01:56:31;;;;;;;30.38;20.00;;;;;;;;;;5133782;27;20115;-63
2022/04/13 01:58:57;;;;;;;30.73;19.70;;;;;;;;;;5131405;27;20393;-63
2022/04/13 02:01:23;;;;;;;30.55;20.23;;;;;;;;;;5133983;27;20045;-63
2022/04/13 02:03:50;;;;;;;29.15;20.88;;;;;;;;;;5111209;27;20059;-63
2022/04/13 02:06:16;;;;;;;31.20;20.23;;;;;;;;;;5124534;27;20047;-63
2022/04/13 02:08:42;;;;;;;35.78;20.33;;;;;;;;;;5093480;27;20080;-63
2022/04/13 02:11:08;;;;;;;31.10;19.92;;;;;;;;;;5132557;27;20093;-62
2022/04/13 02:13:34;;;;;;;32.83;17.27;;;;;;;;;;5130503;27;20042;-63
2022/04/13 02:16:00;;;;;;;29.88;15.82;;;;;;;;;;5123243;27;20124;-63
2022/04/13 02:18:26;;;;;;;26.52;16.63;;;;;;;;;;5127150;27;20043;-63
2022/04/13 02:20:53;;;;;;;26.20;16.98;;;;;;;;;;5131003;27;20108;-63
2022/04/13 02:23:19;;;;;;;31.63;19.33;;;;;;;;;;5101664;27;20043;-63
2022/04/13 02:25:45;;;;;;;31.70;18.95;;;;;;;;;;5129795;27;20043;-63
2022/04/13 02:28:11;;;;;;;27.48;18.95;;;;;;;;;;5110820;27;20053;-63
2022/04/13 02:30:37;;;;;;;26.77;18.02;;;;;;;;;;5125127;27;20043;-63
2022/04/13 02:33:04;;;;;;;29.98;18.70;;;;;;;;;;5108104;27;20051;-63
2022/04/13 02:35:30;;;;;;;25.73;16.13;;;;;;;;;;5124378;27;20051;-63
2022/04/13 02:37:56;;;;;;;26.42;18.10;;;;;;;;;;5132223;27;20161;-63
2022/04/13 02:40:22;;;;;;;27.65;16.80;;;;;;;;;;5128928;27;20399;-63
2022/04/13 02:42:48;;;;;;;29.35;17.92;;;;;;;;;;5112013;27;20486;-63
2022/04/13 02:45:15;;;;;;;30.90;19.65;;;;;;;;;;5131089;27;20505;-62
2022/04/13 02:47:41;;;;;;;31.05;19.58;;;;;;;;;;5125759;27;20095;-63
2022/04/13 02:50:07;;;;;;;34.08;20.95;;;;;;;;;;5111948;27;20384;-63
2022/04/13 02:52:34;;;;;;;31.15;20.63;;;;;;;;;;5129134;27;20140;-63
2022/04/13 02:55:01;;;;;;;30.70;19.90;;;;;;;;;;5130401;27;20054;-63
2022/04/13 02:57:27;;;;;;;32.05;20.80;;;;;;;;;;5131067;27;20042;-63
2022/04/13 02:59:53;;;;;;;32.33;20.67;;;;;;;;;;5131121;27;20066;-63
2022/04/13 03:02:20;;;;;;;34.05;20.80;;;;;;;;;;5130966;27;20066;-63
2022/04/13 03:04:47;;;;;;;39.00;23.15;;;;;;;;;;5128267;27;20057;-63
2022/04/13 03:07:14;;;;;;;32.50;21.27;;;;;;;;;;5132646;27;20033;-63
2022/04/13 03:09:40;;;;;;;39.75;22.05;;;;;;;;;;5124491;27;20578;-63
2022/04/13 03:12:07;;;;;;;34.47;21.83;;;;;;;;;;5107855;27;20043;-63
2022/04/13 03:14:34;;;;;;;35.30;21.95;;;;;;;;;;5131097;27;20088;-63
2022/04/13 03:17:00;;;;;;;34.28;21.80;;;;;;;;;;5104146;27;20116;-63
2022/04/13 03:19:26;;;;;;;37.85;21.80;;;;;;;;;;5125690;27;20122;-63
2022/04/13 03:21:54;;;;;;;33.15;22.08;;;;;;;;;;5113820;27;20039;-63
2022/04/13 03:24:22;;;;;;;37.67;23.70;;;;;;;;;;5129697;27;20147;-63
2022/04/13 03:26:48;;;;;;;37.15;23.17;;;;;;;;;;5121272;27;20092;-63
2022/04/13 03:29:15;;;;;;;38.58;20.08;;;;;;;;;;5117162;27;20451;-63
2022/04/13 03:31:41;;;;;;;39.47;22.83;;;;;;;;;;5116756;27;20493;-63
2022/04/13 03:34:07;;;;;;;41.38;24.52;;;;;;;;;;5106270;27;20047;-63
2022/04/13 03:36:34;;;;;;;31.60;22.35;;;;;;;;;;5097184;28;20040;-63
2022/04/13 03:39:01;;;;;;;36.40;22.08;;;;;;;;;;5102116;28;20051;-63
2022/04/13 03:41:27;;;;;;;35.58;21.88;;;;;;;;;;5106477;28;20051;-63
2022/04/13 03:43:53;;;;;;;37.35;22.52;;;;;;;;;;5100009;28;20055;-63
2022/04/13 03:46:19;;;;;;;34.50;21.35;;;;;;;;;;5084596;28;20218;-63
2022/04/13 03:48:45;;;;;;;34.63;20.90;;;;;;;;;;5092166;28;20138;-63
2022/04/13 03:51:11;;;;;;;32.20;21.30;;;;;;;;;;5078351;28;20079;-62
2022/04/13 03:53:37;;;;;;;41.92;24.48;;;;;;;;;;5082483;28;20377;-63
2022/04/13 03:56:03;;;;;;;37.67;23.05;;;;;;;;;;5089583;28;20488;-63
2022/04/13 03:58:30;;;;;;;34.40;21.48;;;;;;;;;;5088518;28;20119;-63
2022/04/13 04:00:56;;;;;;;35.05;21.48;;;;;;;;;;5090085;28;20138;-63
2022/04/13 04:03:22;;;;;;;33.78;22.67;;;;;;;;;;5085002;28;20433;-62
2022/04/13 04:05:48;;;;;;;33.90;22.45;;;;;;;;;;5076843;28;20036;-63
2022/04/13 04:08:14;;;;;;;39.08;22.92;;;;;;;;;;5083862;28;20041;-63
2022/04/13 04:10:40;;;;;;;32.15;22.55;;;;;;;;;;5087602;28;20414;-63
2022/04/13 04:13:06;;;;;;;38.50;25.67;;;;;;;;;;5078202;28;20079;-63
2022/04/13 04:15:33;;;;;;;36.63;23.25;;;;;;;;;;5079619;28;20089;-63
2022/04/13 04:17:59;;;;;;;33.58;22.30;;;;;;;;;;5079705;28;20169;-63
2022/04/13 04:20:25;;;;;;;38.50;23.42;;;;;;;;;;5071530;28;20480;-62
2022/04/13 04:22:51;;;;;;;40.75;24.85;;;;;;;;;;5086797;28;20041;-63
2022/04/13 04:25:17;;;;;;;37.15;25.20;;;;;;;;;;5084062;28;20108;-63
2022/04/13 04:27:43;;;;;;;39.17;24.90;;;;;;;;;;5084270;28;20051;-63
2022/04/13 04:30:09;;;;;;;35.45;22.95;;;;;;;;;;5085584;28;20043;-63
2022/04/13 04:32:36;;;;;;;37.67;23.65;;;;;;;;;;5078854;28;20078;-63
2022/04/13 04:35:02;;;;;;;37.30;24.38;;;;;;;;;;5079694;28;20044;-63
2022/04/13 04:37:28;;;;;;;36.55;24.40;;;;;;;;;;5122872;27;20142;-63
2022/04/13 04:39:54;;;;;;;37.90;26.25;;;;;;;;;;5103648;27;20047;-63
2022/04/13 04:42:20;;;;;;;41.80;23.92;;;;;;;;;;5119610;27;20099;-63
2022/04/13 04:44:46;;;;;;;40.85;24.63;;;;;;;;;;5125706;27;20130;-63
2022/04/13 04:47:13;;;;;;;41.97;25.95;;;;;;;;;;5108088;28;20047;-63
2022/04/13 04:49:39;;;;;;;44.15;26.85;;;;;;;;;;5104253;28;20062;-63
2022/04/13 04:52:05;;;;;;;40.67;26.42;;;;;;;;;;5125659;27;20475;-64
2022/04/13 04:54:31;;;;;;;38.72;25.08;;;;;;;;;;5126316;28;20058;-62
2022/04/13 04:56:57;;;;;;;36.15;25.05;;;;;;;;;;5130240;28;20039;-63
2022/04/13 04:59:23;;;;;;;39.67;26.08;;;;;;;;;;5125620;28;20130;-63
2022/04/13 05:01:49;;;;;;;37.88;25.48;;;;;;;;;;5128039;28;20046;-63
2022/04/13 05:04:16;;;;;;;42.45;26.33;;;;;;;;;;5105788;28;20073;-63
2022/04/13 05:06:42;;;;;;;41.13;26.00;;;;;;;;;;5119175;28;20154;-63
2022/04/13 05:09:08;;;;;;;40.72;26.52;;;;;;;;;;5100367;28;20062;-63
2022/04/13 05:11:34;;;;;;;36.35;24.88;;;;;;;;;;5120651;28;20046;-63
2022/04/13 05:14:00;;;;;;;41.70;28.20;;;;;;;;;;5120522;28;20048;-63
2022/04/13 05:16:26;;;;;;;39.28;26.10;;;;;;;;;;5121842;28;20039;-63
2022/04/13 05:18:53;;;;;;;38.92;26.00;;;;;;;;;;5119344;28;20039;-63
2022/04/13 05:21:19;;;;;;;40.20;27.50;;;;;;;;;;5117502;28;20035;-63
2022/04/13 05:23:45;;;;;;;45.70;27.17;;;;;;;;;;5116175;28;20127;-63
2022/04/13 05:26:11;;;;;;;40.70;26.20;;;;;;;;;;5112849;28;20081;-63
2022/04/13 05:28:38;;;;;;;41.88;28.08;;;;;;;;;;5116896;28;20038;-63
2022/04/13 05:31:04;;;;;;;42.60;26.30;;;;;;;;;;5115799;28;20500;-63
2022/04/13 05:33:30;;;;;;;41.28;27.65;;;;;;;;;;5099882;28;20043;-63
2022/04/13 05:35:56;;;;;;;42.80;27.60;;;;;;;;;;5085768;28;20056;-63
2022/04/13 05:38:22;;;;;;;40.00;28.02;;;;;;;;;;5078012;28;20158;-63
2022/04/13 05:40:49;;;;;;;46.42;28.27;;;;;;;;;;5075143;28;20048;-62
2022/04/13 05:43:15;;;;;;;43.42;27.70;;;;;;;;;;5083275;28;20091;-65
2022/04/13 05:45:41;;;;;;;43.78;28.23;;;;;;;;;;5077520;28;20138;-63
2022/04/13 05:48:08;;;;;;;45.83;28.33;;;;;;;;;;5078603;28;20044;-63
2022/04/13 05:50:34;;;;;;;43.05;28.77;;;;;;;;;;5082312;28;20036;-63
2022/04/13 05:53:00;;;;;;;42.83;28.52;;;;;;;;;;5085818;28;20035;-63
2022/04/13 05:55:26;;;;;;;43.10;28.38;;;;;;;;;;5085858;28;20060;-63
2022/04/13 05:57:52;;;;;;;44.22;29.00;;;;;;;;;;5081486;28;20036;-63
2022/04/13 06:00:18;;;;;;;40.95;28.40;;;;;;;;;;5081960;28;20483;-63
2022/04/13 06:02:45;;;;;;;47.30;27.40;;;;;;;;;;5087706;28;20040;-62
2022/04/13 06:05:11;;;;;;;41.88;27.10;;;;;;;;;;5082664;28;20044;-62
2022/04/13 06:07:37;;;;;;;44.20;24.90;;;;;;;;;;5081074;28;20098;-63
2022/04/13 06:10:05;;;;;;;45.00;27.77;;;;;;;;;;5086609;28;20491;-63
2022/04/13 06:12:32;;;;;;;48.88;26.77;;;;;;;;;;5086382;28;20048;-63
2022/04/13 06:15:02;;;;;;;44.55;26.83;;;;;;;;;;5080166;28;20484;-62
2022/04/13 06:17:29;;;;;;;45.45;26.88;;;;;;;;;;5085034;28;20142;-63
2022/04/13 06:19:55;;;;;;;39.00;25.80;;;;;;;;;;5079998;28;20058;-63
2022/04/13 06:22:21;;;;;;;48.15;28.40;;;;;;;;;;5084060;28;20040;-63
2022/04/13 06:24:51;;;;;;;43.03;26.52;;;;;;;;;;5086046;28;20138;-62
2022/04/13 06:27:19;;;;;;;36.65;24.58;;;;;;;;;;5081007;28;20072;-63
2022/04/13 06:29:45;;;;;;;45.50;25.67;;;;;;;;;;5085034;28;20114;-63
2022/04/13 06:32:12;;;;;;;39.47;24.92;;;;;;;;;;5081486;28;20048;-63
2022/04/13 06:34:38;;;;;;;43.08;25.38;;;;;;;;;;5081964;28;20053;-63
2022/04/13 06:37:05;;;;;;;42.17;24.65;;;;;;;;;;5097176;28;20066;-63
2022/04/13 06:39:31;;;;;;;44.97;25.92;;;;;;;;;;5107190;28;20052;-62
2022/04/13 06:41:58;;;;;;;38.58;24.63;;;;;;;;;;5100424;28;20135;-63
2022/04/13 06:44:24;;;;;;;39.78;25.00;;;;;;;;;;5103347;28;20044;-64
2022/04/13 06:46:50;;;;;;;36.65;22.35;;;;;;;;;;5097352;28;20127;-63
2022/04/13 06:49:16;;;;;;;37.78;22.77;;;;;;;;;;5103409;28;20399;-62
2022/04/13 06:51:43;;;;;;;34.80;21.73;;;;;;;;;;5101734;28;20055;-62
2022/04/13 06:54:09;;;;;;;43.05;22.67;;;;;;;;;;5099254;28;20450;-63
2022/04/13 06:56:35;;;;;;;42.85;23.90;;;;;;;;;;5108806;28;20443;-64
2022/04/13 06:59:01;;;;;;;41.33;22.33;;;;;;;;;;5108283;28;20039;-63
2022/04/13 07:01:27;;;;;;;34.53;21.70;;;;;;;;;;5109914;28;20043;-64
2022/04/13 07:03:53;;;;;;;35.30;23.02;;;;;;;;;;5111625;28;20538;-63
2022/04/13 07:06:20;;;;;;;36.00;23.23;;;;;;;;;;5106862;28;20043;-64
2022/04/13 07:08:46;;;;;;;37.45;22.17;;;;;;;;;;5110724;28;20489;-63
2022/04/13 07:11:12;;;;;;;40.13;22.55;;;;;;;;;;5111213;28;20483;-64
2022/04/13 07:13:38;;;;;;;29.55;21.58;;;;;;;;;;5111923;28;20498;-63
2022/04/13 07:16:04;;;;;;;33.22;22.23;;;;;;;;;;5108904;28;20126;-64
2022/04/13 07:18:30;;;;;;;39.25;23.92;;;;;;;;;;5112967;28;20073;-64
2022/04/13 07:20:56;;;;;;;35.20;23.63;;;;;;;;;;5113131;28;20060;-64
2022/04/13 07:23:23;;;;;;;36.53;23.23;;;;;;;;;;5112468;28;20039;-64
2022/04/13 07:25:49;;;;;;;33.97;20.88;;;;;;;;;;5112926;28;20127;-63
2022/04/13 07:28:15;;;;;;;36.78;22.33;;;;;;;;;;5111508;28;20078;-63
2022/04/13 07:30:41;;;;;;;33.92;21.98;;;;;;;;;;5108709;28;20031;-64
2022/04/13 07:33:07;;;;;;;38.28;20.80;;;;;;;;;;5106742;28;20043;-63
2022/04/13 07:35:33;;;;;;;33.97;19.35;;;;;;;;;;5104896;28;20373;-63
2022/04/13 07:38:00;;;;;;;33.25;19.67;;;;;;;;;;5108590;28;20059;-63
2022/04/13 07:40:26;;;;;;;32.38;19.98;;;;;;;;;;5111417;28;20043;-63
2022/04/13 07:42:52;;;;;;;32.80;18.77;;;;;;;;;;5110211;27;20047;-62
2022/04/13 07:45:18;;;;;;;28.90;19.20;;;;;;;;;;5099258;27;20032;-62
2022/04/13 07:47:44;;;;;;;29.75;18.60;;;;;;;;;;5103560;28;20146;-63
2022/04/13 07:50:12;;;;;;;32.08;18.38;;;;;;;;;;5106668;28;20032;-64
2022/04/13 07:52:38;;;;;;;32.00;16.88;;;;;;;;;;5100651;28;20051;-64
2022/04/13 07:55:06;;;;;;;25.17;16.05;;;;;;;;;;5098553;28;20039;-64
2022/04/13 07:57:32;;;;;;;26.90;16.67;;;;;;;;;;5097428;28;20071;-74
2022/04/13 07:59:59;;;;;;;32.00;17.73;;;;;;;;;;5094944;28;20476;-64
2022/04/13 08:02:25;;;;;;;25.23;16.73;;;;;;;;;;5103114;28;20451;-63
2022/04/13 08:04:51;;;;;;;27.52;16.00;;;;;;;;;;5102027;28;20059;-63
2022/04/13 08:07:17;;;;;;;27.92;15.90;;;;;;;;;;5105813;28;20067;-63
2022/04/13 08:09:44;;;;;;;29.30;14.98;;;;;;;;;;5104165;28;20043;-63
2022/04/13 08:12:10;;;;;;;28.17;15.77;;;;;;;;;;5103551;28;20391;-64
2022/04/13 08:14:37;;;;;;;25.63;15.02;;;;;;;;;;5103141;28;20043;-64
2022/04/13 08:17:04;;;;;;;26.13;13.60;;;;;;;;;;5100315;28;20046;-63
2022/04/13 08:19:30;;;;;;;24.00;14.63;;;;;;;;;;5100300;28;20051;-63
2022/04/13 08:21:57;;;;;;;23.05;15.35;;;;;;;;;;5100155;28;20073;-64
2022/04/13 08:24:23;;;;;;;24.23;15.18;;;;;;;;;;5104237;28;20142;-64
2022/04/13 08:26:49;;;;;;;27.63;16.02;;;;;;;;;;5101015;28;20141;-64
2022/04/13 08:29:15;;;;;;;31.98;15.88;;;;;;;;;;5102278;28;20061;-64
2022/04/13 08:31:41;;;;;;;25.90;15.52;;;;;;;;;;5103896;28;20047;-64
2022/04/13 08:34:08;;;;;;;25.63;14.90;;;;;;;;;;5102866;28;20043;-65
2022/04/13 08:36:34;;;;;;;23.70;14.32;;;;;;;;;;5111742;27;20114;-63
2022/04/13 08:39:00;;;;;;;23.10;14.95;;;;;;;;;;5119698;27;20744;-63
2022/04/13 08:41:40;;;;;;;28.83;15.43;;;;;;;;;;5099941;27;20039;-63
2022/04/13 08:44:15;;;;;;;22.58;14.82;;;;;;;;;;5105051;27;20066;-63
2022/04/13 08:46:43;;;;;;;24.92;14.43;;;;;;;;;;5107533;27;20423;-63
2022/04/13 08:49:10;;;;;;;30.60;16.92;;;;;;;;;;5131973;27;20039;-63
2022/04/13 08:51:37;;;;;;;26.80;15.45;;;;;;;;;;5113647;27;20511;-64
2022/04/13 08:54:03;;;;;;;26.65;15.32;;;;;;;;;;5131288;27;20170;-64
2022/04/13 08:56:30;;;;;;;25.35;15.07;;;;;;;;;;5131762;28;20035;-63
2022/04/13 08:59:01;;;;;;;24.00;13.20;;;;;;;;;;5131823;28;20035;-64
2022/04/13 09:01:39;;;;;;;26.08;14.32;;;;;;;;;;5127460;28;20454;-64
2022/04/13 09:04:07;;;;;;;22.02;12.57;;;;;;;;;;5113458;28;20122;-64
2022/04/13 09:06:34;;;;;;;20.42;12.10;;;;;;;;;;5128067;28;20070;-64
2022/04/13 09:09:01;;;;;;;23.30;13.90;;;;;;;;;;5112839;28;20377;-64
2022/04/13 09:11:28;;;;;;;22.00;12.52;;;;;;;;;;5111988;28;20095;-63
2022/04/13 09:13:54;;;;;;;22.38;12.48;;;;;;;;;;5128886;28;20070;-63
2022/04/13 09:16:21;;;;;;;23.88;12.23;;;;;;;;;;5127318;28;20367;-64
2022/04/13 09:18:47;;;;;;;21.55;11.45;;;;;;;;;;5131958;28;20043;-63
2022/04/13 09:21:17;;;;;;;20.38;9.98;;;;;;;;;;5132035;28;20031;-64
2022/04/13 09:23:43;;;;;;;21.80;11.18;;;;;;;;;;5131550;28;20488;-64
2022/04/13 09:26:10;;;;;;;19.70;10.05;;;;;;;;;;5133278;27;20114;-64
2022/04/13 09:28:37;;;;;;;21.85;9.50;;;;;;;;;;5135213;27;20039;-64
2022/04/13 09:31:04;;;;;;;22.27;11.90;;;;;;;;;;5135806;27;20373;-63
2022/04/13 09:33:30;;;;;;;22.85;10.98;;;;;;;;;;5136129;27;20035;-64
2022/04/13 09:35:56;;;;;;;15.25;10.02;;;;;;;;;;5134465;27;20059;-64
2022/04/13 09:38:23;;;;;;;20.25;11.50;;;;;;;;;;5135585;27;20066;-64
2022/04/13 09:40:51;;;;;;;19.42;10.95;;;;;;;;;;5135701;27;20089;-63
2022/04/13 09:43:18;;;;;;;25.50;11.18;;;;;;;;;;5134963;27;20043;-64
2022/04/13 09:45:45;;;;;;;18.38;10.32;;;;;;;;;;5117098;27;20443;-64
2022/04/13 09:48:13;;;;;;;22.05;10.32;;;;;;;;;;5135589;27;20107;-63
2022/04/13 09:50:40;;;;;;;18.63;10.68;;;;;;;;;;5134710;27;20042;-63
2022/04/13 09:53:07;;;;;;;25.98;11.35;;;;;;;;;;5136607;27;20035;-63
2022/04/13 09:55:40;;;;;;;24.80;11.30;;;;;;;;;;5136322;27;20035;-64
2022/04/13 09:58:07;;;;;;;18.73;9.63;;;;;;;;;;5134941;27;20119;-64
2022/04/13 10:00:35;;;;;;;17.35;8.90;;;;;;;;;;5136239;27;20355;-64
2022/04/13 10:03:08;;;;;;;24.77;10.95;;;;;;;;;;5136772;27;20051;-64
2022/04/13 10:05:34;;;;;;;20.77;9.95;;;;;;;;;;5116067;27;20047;-64
2022/04/13 10:08:01;;;;;;;21.45;9.95;;;;;;;;;;5115839;28;20086;-64
2022/04/13 10:10:28;;;;;;;15.80;10.15;;;;;;;;;;5115481;28;20048;-64
2022/04/13 10:12:54;;;;;;;21.25;10.38;;;;;;;;;;5128188;27;20370;-64
2022/04/13 10:15:21;;;;;;;21.15;10.27;;;;;;;;;;5136241;27;20043;-64
2022/04/13 10:17:47;;;;;;;20.20;11.65;;;;;;;;;;5115365;28;20035;-64
2022/04/13 10:20:13;;;;;;;17.35;11.00;;;;;;;;;;5115525;28;20085;-64
2022/04/13 10:22:59;;;;;;;19.23;10.10;;;;;;;;;;5115617;28;20406;-64
2022/04/13 10:25:26;;;;;;;16.13;9.25;;;;;;;;;;5114890;28;20035;-64
2022/04/13 10:27:58;;;;;;;17.27;9.75;;;;;;;;;;5098798;27;20051;-64
2022/04/13 10:30:25;;;;;;;15.13;9.10;;;;;;;;;;5135377;27;20039;-65
2022/04/13 10:32:59;;;;;;;18.58;10.07;;;;;;;;;;5134876;27;20075;-65
2022/04/13 10:35:25;;;;;;;18.75;8.70;;;;;;;;;;5120622;27;20380;-65
2022/04/13 10:37:52;;;;;;;15.48;8.57;;;;;;;;;;5095659;28;20048;-65
2022/04/13 10:40:19;;;;;;;17.70;8.70;;;;;;;;;;5095812;28;20047;-64
2022/04/13 10:42:48;;;;;;;16.92;8.50;;;;;;;;;;5115152;28;20478;-64
2022/04/13 10:45:15;;;;;;;16.92;8.27;;;;;;;;;;5096856;28;20101;-64
2022/04/13 10:47:44;;;;;;;19.02;7.93;;;;;;;;;;5129099;27;20044;-64
2022/04/13 10:50:12;;;;;;;20.15;8.18;;;;;;;;;;5135745;27;20057;-65
2022/04/13 10:52:40;;;;;;;17.52;8.13;;;;;;;;;;5135469;27;20043;-64
2022/04/13 10:55:08;;;;;;;14.73;6.90;;;;;;;;;;5116062;27;20043;-64
2022/04/13 10:57:36;;;;;;;15.57;7.70;;;;;;;;;;5116267;27;20039;-64
2022/04/13 11:00:04;;;;;;;16.38;7.80;;;;;;;;;;5132681;27;20447;-64
2022/04/13 11:02:35;;;;;;;17.02;7.28;;;;;;;;;;5133401;27;20122;-64
2022/04/13 11:05:01;;;;;;;18.77;8.23;;;;;;;;;;5115133;27;20054;-64
2022/04/13 11:07:27;;;;;;;20.95;7.63;;;;;;;;;;5133239;27;20044;-64
2022/04/13 11:09:57;;;;;;;21.58;8.50;;;;;;;;;;5109669;27;20054;-63
2022/04/13 11:12:26;;;;;;;22.63;7.90;;;;;;;;;;5133420;27;20098;-64
2022/04/13 11:14:54;;;;;;;13.43;6.97;;;;;;;;;;5132671;27;20113;-64
2022/04/13 11:17:20;;;;;;;14.02;7.28;;;;;;;;;;5114839;27;20043;-64
2022/04/13 11:19:48;;;;;;;17.40;6.13;;;;;;;;;;5134956;27;20566;-64
2022/04/13 11:22:17;;;;;;;14.18;6.38;;;;;;;;;;5134306;27;20053;-64
2022/04/13 11:24:54;;;;;;;19.40;6.95;;;;;;;;;;5132846;27;20465;-64
2022/04/13 11:27:20;;;;;;;14.82;6.32;;;;;;;;;;5116064;27;20533;-64
2022/04/13 11:30:05;;;;;;;15.63;6.28;;;;;;;;;;5133832;27;20039;-64
2022/04/13 11:32:33;;;;;;;15.38;7.07;;;;;;;;;;5134585;27;20049;-64
2022/04/13 11:34:59;;;;;;;17.27;7.35;;;;;;;;;;5133726;27;20039;-64
2022/04/13 11:37:26;;;;;;;25.13;8.30;;;;;;;;;;5133287;27;20090;-64
2022/04/13 11:39:53;;;;;;;20.00;9.02;;;;;;;;;;5115600;27;20071;-64
2022/04/13 11:42:20;;;;;;;22.85;9.77;;;;;;;;;;5115241;27;20134;-64
2022/04/13 11:44:47;;;;;;;19.05;9.07;;;;;;;;;;5115318;27;20051;-64
2022/04/13 11:47:15;;;;;;;14.63;7.07;;;;;;;;;;5134333;27;20043;-64
2022/04/13 11:49:56;;;;;;;17.38;8.52;;;;;;;;;;5133122;27;20046;-64
2022/04/13 11:52:42;;;;;;;19.48;8.63;;;;;;;;;;5115557;27;20051;-64
2022/04/13 11:55:17;;;;;;;22.38;10.27;;;;;;;;;;5133311;27;20046;-64
2022/04/13 11:57:56;;;;;;;21.90;10.50;;;;;;;;;;5133320;27;20051;-64
2022/04/13 12:00:42;;;;;;;23.80;11.23;;;;;;;;;;5133957;27;20129;-64
2022/04/13 12:03:10;;;;;;;21.70;11.55;;;;;;;;;;5134046;27;20501;-64
2022/04/13 12:05:38;;;;;;;24.70;11.32;;;;;;;;;;5114348;27;20043;-64
2022/04/13 12:08:12;;;;;;;22.65;11.07;;;;;;;;;;5133966;27;20039;-64
2022/04/13 12:10:38;;;;;;;18.75;10.80;;;;;;;;;;5114729;27;20507;-64
2022/04/13 12:13:05;;;;;;;21.13;9.88;;;;;;;;;;5115203;27;20079;-64
2022/04/13 12:15:43;;;;;;;25.05;11.18;;;;;;;;;;5133192;27;20039;-64
2022/04/13 12:18:10;;;;;;;23.67;10.50;;;;;;;;;;5114829;27;20051;-64
2022/04/13 12:20:37;;;;;;;21.42;10.95;;;;;;;;;;5133607;27;20118;-64
2022/04/13 12:23:16;;;;;;;30.23;12.55;;;;;;;;;;5115165;27;20100;-64
2022/04/13 12:25:43;;;;;;;24.42;11.27;;;;;;;;;;5132549;27;20053;-64
2022/04/13 12:28:09;;;;;;;22.80;10.77;;;;;;;;;;5132982;27;20103;-64
2022/04/13 12:30:35;;;;;;;26.73;10.98;;;;;;;;;;5133579;27;20039;-64
2022/04/13 12:33:12;;;;;;;23.17;11.00;;;;;;;;;;5132687;27;20043;-64
2022/04/13 12:35:49;;;;;;;22.88;11.13;;;;;;;;;;5114967;27;20062;-64
2022/04/13 12:38:23;;;;;;;20.05;11.70;;;;;;;;;;5113865;27;20151;-64
2022/04/13 12:40:49;;;;;;;;;;;;;;;;;;5115175;27;20053;-64
2022/04/13 12:43:31;;;;;;;25.38;10.98;;;;;;;;;;5133441;27;20018;-64
2022/04/13 12:45:58;;;;;;;25.17;11.60;;;;;;;;;;5132410;27;20058;-64
2022/04/13 12:48:25;;;;;;;23.48;10.93;;;;;;;;;;5098729;28;20157;-64
2022/04/13 12:50:57;;;;;;;22.08;12.20;;;;;;;;;;5112507;28;20043;-64
2022/04/13 12:53:23;;;;;;;17.95;10.15;;;;;;;;;;5094052;28;20056;-64
2022/04/13 12:55:51;;;;;;;21.70;11.30;;;;;;;;;;5112811;28;20376;-64
2022/04/13 12:58:17;;;;;;;20.55;10.18;;;;;;;;;;5094259;28;20056;-64
2022/04/13 13:00:47;;;;;;;22.27;10.90;;;;;;;;;;5111247;28;20043;-64
2022/04/13 13:03:14;;;;;;;20.63;9.82;;;;;;;;;;5112392;28;20040;-64
2022/04/13 13:05:40;;;;;;;18.50;9.50;;;;;;;;;;5094239;28;20383;-64
2022/04/13 13:08:06;;;;;;;19.02;10.55;;;;;;;;;;5111878;28;20044;-65
2022/04/13 13:10:33;;;;;;;15.13;9.10;;;;;;;;;;5112482;28;20079;-64
2022/04/13 13:13:13;;;;;;;16.00;8.48;;;;;;;;;;5094092;28;20096;-64
2022/04/13 13:15:40;;;;;;;19.40;8.52;;;;;;;;;;5111442;28;20406;-64
2022/04/13 13:18:07;;;;;;;21.73;10.13;;;;;;;;;;5112581;28;20094;-64
2022/04/13 13:20:35;;;;;;;18.38;8.43;;;;;;;;;;5112215;28;20387;-64
2022/04/13 13:23:08;;;;;;;16.23;7.90;;;;;;;;;;5093911;28;20495;-64
2022/04/13 13:25:43;;;;;;;16.95;7.30;;;;;;;;;;5112430;28;20048;-64
2022/04/13 13:28:10;;;;;;;16.77;6.78;;;;;;;;;;5098968;28;20067;-64
2022/04/13 13:30:39;;;;;;;19.40;6.70;;;;;;;;;;5128502;28;20032;-65
2022/04/13 13:33:09;;;;;;;15.75;6.47;;;;;;;;;;5131656;28;20035;-64
2022/04/13 13:35:35;;;;;;;17.88;7.32;;;;;;;;;;5112211;28;20111;-64
2022/04/13 13:38:08;;;;;;;14.48;6.70;;;;;;;;;;5113047;28;20054;-64
2022/04/13 13:40:35;;;;;;;16.77;5.47;;;;;;;;;;5129447;28;20114;-64
2022/04/13 13:43:04;;;;;;;10.68;5.63;;;;;;;;;;5131260;28;20129;-64
2022/04/13 13:45:32;;;;;;;16.23;6.55;;;;;;;;;;5131552;28;20050;-64
2022/04/13 13:47:58;;;;;;;12.63;5.32;;;;;;;;;;5131377;28;20077;-64
2022/04/13 13:50:24;;;;;;;13.52;5.30;;;;;;;;;;5094621;28;20031;-64
2022/04/13 13:52:51;;;;;;;13.68;4.82;;;;;;;;;;5131198;28;20160;-64
2022/04/13 13:55:25;;;;;;;15.75;4.82;;;;;;;;;;5130739;28;20031;-64
2022/04/13 13:57:51;;;;;;;15.13;5.07;;;;;;;;;;5130332;28;20043;-64
2022/04/13 14:00:18;;;;;;;12.43;4.88;;;;;;;;;;5108471;28;20118;-64
2022/04/13 14:02:52;;;;;;;14.60;5.05;;;;;;;;;;5131306;28;20039;-64
2022/04/13 14:05:19;;;;;;;13.60;4.75;;;;;;;;;;5112789;28;20535;-64
2022/04/13 14:07:45;;;;;;;14.00;4.68;;;;;;;;;;5127535;28;20114;-64
2022/04/13 14:10:11;;;;;;;14.45;4.22;;;;;;;;;;5126730;28;20479;-64
2022/04/13 14:12:38;;;;;;;13.18;4.13;;;;;;;;;;5113834;27;20058;-64
2022/04/13 14:15:04;;;;;;;12.23;4.00;;;;;;;;;;5116823;27;20050;-64
2022/04/13 14:17:31;;;;;;;14.23;4.10;;;;;;;;;;5134169;27;20051;-64
2022/04/13 14:19:57;;;;;;;11.18;3.28;;;;;;;;;;5115808;27;20175;-64
2022/04/13 14:22:24;;;;;;;13.32;4.20;;;;;;;;;;5132182;27;20031;-64